Flight Track Log - Related Links

Times and Time Zones

All times are in EDT time to prevent confusion due to time zone crossing. See the EGF3305 flight status page for this flight to view local times or setup timezone preferences in your user account.

Time Position Orientation Groundspeed Altitude Reporting Facility
EDT Latitude Longitude Course Direction KTS MPH feet Rate Location/Type
Thu 04:04:54 PM 35.8986 -78.7792 34° Northeast 154 177 1,400  Level Washington Center
Thu 04:05:12 PM 35.9072 -78.7719 34° Northeast 158 182 2,100 2,025 Climbing Washington Center
Thu 04:06:14 PM 35.9600 -78.7458 22° Northeast 218 251 4,100 2,311 Climbing Washington Center
Thu 04:07:14 PM 36.0258 -78.7100 24° Northeast 277 319 6,800 2,466 Climbing Washington Center
Thu 04:07:27 PM 36.0364 -78.7053 20° North 265 305 7,100 2,548 Climbing Washington Center
Thu 04:08:27 PM 36.1083 -78.6592 27° Northeast 291 335 9,900 2,231 Climbing Washington Center
Thu 04:09:28 PM 36.1728 -78.5922 40° Northeast 303 349 11,600 1,033 Climbing Washington Center
Thu 04:10:29 PM 36.2567 -78.4925 44° Northeast 342 394 12,000 555 Climbing Washington Center
Thu 04:11:27 PM 36.3294 -78.4075 43° Northeast 384 442 12,700 1,008 Climbing Washington Center
Thu 04:12:28 PM 36.4133 -78.3072 44° Northeast 406 467 14,000 1,587 Climbing Washington Center
Thu 04:13:28 PM 36.5011 -78.2042 43° Northeast 411 473 15,900 1,765 Climbing Washington Center
Thu 04:14:27 PM 36.5947 -78.1144 38° Northeast 411 473 17,500 1,400 Climbing Washington Center
Thu 04:15:28 PM 36.6928 -78.0217 37° Northeast 430 495 18,700 1,339 Climbing Washington Center
Thu 04:16:28 PM 36.7925 -77.9289 37° Northeast 441 507 20,200 1,488 Climbing Washington Center
Thu 04:17:29 PM 36.8761 -77.8144 48° Northeast 441 507 21,700 1,513 Climbing Washington Center
Thu 04:18:27 PM 36.9578 -77.6894 51° Northeast 446 513 23,200 1,563 Climbing Washington Center
Thu 04:19:28 PM 37.0411 -77.5617 51° Northeast 459 528 24,800 2,083 Climbing Washington Center
Thu 04:20:28 PM 37.1183 -77.4411 51° Northeast 460 529 27,400 2,380 Climbing Washington Center
Thu 04:21:29 PM 37.1764 -77.3175 59° Northeast 438 504 29,600 1,785 Climbing Washington Center
Thu 04:22:29 PM 37.1994 -77.1564 80° East 420 483 31,000 712 Climbing Washington Center
Thu 04:23:27 PM 37.2242 -77.0108 78° East 420 483 31,000  Level Washington Center
Thu 04:24:28 PM 37.2839 -76.9075 54° Northeast 396 456 31,000  Level Washington Center
Thu 04:25:29 PM 37.4075 -76.8572 18° North 388 447 31,000  Level Washington Center
Thu 04:26:27 PM 37.5122 -76.8144 18° North 410 472 31,000  Level Washington Center
Thu 04:27:28 PM 37.6253 -76.7717 17° North 417 480 31,000  Level Washington Center
Thu 04:28:29 PM 37.7361 -76.7314 16° North 422 486 31,000  Level Washington Center
Thu 04:29:29 PM 37.8469 -76.6883 17° North 422 486 31,000  Level Washington Center
Thu 04:30:27 PM 37.9622 -76.6428 17° North 422 486 31,000  Level Washington Center
Thu 04:31:27 PM 38.0628 -76.5703 30° Northeast 416 479 31,000  Level Washington Center
Thu 04:32:28 PM 38.1636 -76.4922 31° Northeast 416 479 31,000 -149 Level Washington Center
Thu 04:33:28 PM 38.2683 -76.4142 30° Northeast 424 488 30,700 -550 Descending Washington Center
Thu 04:34:28 PM 38.3878 -76.3069 35° Northeast 445 512 29,900 -744 Descending Washington Center
Thu 04:35:29 PM 38.4969 -76.2072 36° Northeast 467 537 29,200 -700 Descending Washington Center
Thu 04:36:28 PM 38.6017 -76.1069 37° Northeast 480 552 28,500 -700 Descending Washington Center
Thu 04:37:29 PM 38.7083 -76.0119 35° Northeast 475 547 27,800 -645 Descending Washington Center
Thu 04:38:29 PM 38.8128 -75.9139 36° Northeast 470 541 27,200 -407 Descending Washington Center
Thu 04:39:27 PM 38.9194 -75.8183 35° Northeast 470 541 27,000 -101 Descending Washington Center
Thu 04:40:28 PM 39.0194 -75.7172 38° Northeast 470 541 27,000  Level Washington Center
Thu 04:41:29 PM 39.1239 -75.6211 36° Northeast 464 534 27,000  Level Washington Center
Thu 04:42:27 PM 39.2258 -75.5219 37° Northeast 459 528 27,000  Level Washington Center
Thu 04:43:28 PM 39.3342 -75.4278 34° Northeast 459 528 27,000 -934 Level Washington Center
Thu 04:44:29 PM 39.4383 -75.3336 35° Northeast 459 528 25,100 -2,067 Descending Washington Center
Thu 04:45:27 PM 39.5400 -75.2417 35° Northeast 452 520 22,900 -2,168 Descending Washington Center
Thu 04:46:28 PM 39.6356 -75.1522 36° Northeast 437 503 20,800 -2,033 Descending Washington Center
Thu 04:47:28 PM 39.7311 -75.0653 35° Northeast 427 491 18,800 -1,785 Descending Washington Center
Thu 04:48:29 PM 39.8244 -74.9864 33° Northeast 404 465 17,200 -2,047 Descending Washington Center
Thu 04:50:18 PM 39.9833 -74.8167 39° Northeast 390 449 13,000 -2,319 Descending New York TRACON
Thu 04:51:12 PM 40.0500 -74.7333 44° Northeast 371 427 10,900 -1,579 Descending New York TRACON
Thu 04:52:12 PM 40.1167 -74.6333 49° Northeast 351 404 10,000 -429 Descending New York TRACON
Thu 04:53:18 PM 40.1833 -74.5333 49° Northeast 333 383 10,000  Level New York TRACON
Thu 04:54:18 PM 40.2333 -74.4667 45° Northeast 259 298 10,000  Level New York TRACON
Thu 04:55:18 PM 40.2833 -74.4000 45° Northeast 249 287 10,000 -500 Level New York TRACON
Thu 04:56:18 PM 40.3333 -74.3333 45° Northeast 255 293 9,000 -1,048 Descending New York TRACON
Thu 04:57:24 PM 40.3833 -74.2667 45° Northeast 246 283 7,800 -1,000 Descending New York TRACON
Thu 04:58:18 PM 40.4333 -74.2167 37° Northeast 238 274 7,000 -421 Descending New York TRACON
Thu 04:59:18 PM 40.4833 -74.1500 45° Northeast 242 278 7,000 -750 Level New York TRACON
Thu 05:00:18 PM 40.5333 -74.1000 37° Northeast 235 270 5,500 -1,500 Descending New York TRACON
Thu 05:01:18 PM 40.5667 -74.0500 49° Northeast 173 199 4,000 -1,200 Descending New York TRACON
Thu 05:02:18 PM 40.6000 -74.0167 37° Northeast 174 200 3,100 -550 Descending New York TRACON
Thu 05:03:18 PM 40.6333 -74.0000 21° North 157 181 2,900 -450 Descending New York TRACON
Thu 05:04:18 PM 40.6667 -73.9667 37° Northeast 152 175 2,200 -650 Descending New York TRACON
Thu 05:05:18 PM 40.7000 -73.9333 37° Northeast 157 181 1,600 -700 Descending New York TRACON
Thu 05:06:18 PM 40.7333 -73.9167 21° North 127 146 800 -800 Descending New York TRACON

Login

Don't have an account? Register now (free) for customized features, flight alerts, and more!